createdAt,value
2019-03-09T00:00:02.040Z,79.08
2019-03-09T00:02:31.826Z,78.58
2019-03-09T00:05:02.305Z,78.71
2019-03-09T00:07:32.015Z,78.92
2019-03-09T00:10:01.638Z,78.27
2019-03-09T00:12:31.530Z,78.07
2019-03-09T00:15:01.112Z,78.07
2019-03-09T00:17:30.748Z,77.54
2019-03-09T00:20:01.323Z,77.65
2019-03-09T00:22:30.906Z,77.77
2019-03-09T00:25:07.813Z,77.84
2019-03-09T00:27:56.955Z,77.78
2019-03-09T00:30:38.192Z,77.49
2019-03-09T00:33:08.761Z,77.32
2019-03-09T00:35:38.664Z,77.60
2019-03-09T00:38:08.352Z,77.60
2019-03-09T00:40:38.018Z,77.34
2019-03-09T00:43:08.352Z,77.34
2019-03-09T00:45:38.176Z,77.48
2019-03-09T00:48:07.870Z,77.35
2019-03-09T00:50:37.548Z,77.67
2019-03-09T00:53:07.290Z,77.67
2019-03-09T00:55:36.856Z,78.67
2019-03-09T00:58:06.689Z,78.67
2019-03-09T01:00:38.176Z,79.39
2019-03-09T01:03:08.072Z,80.13
2019-03-09T01:05:38.340Z,81.14
2019-03-09T01:08:08.019Z,81.76
2019-03-09T01:10:37.963Z,81.61
2019-03-09T01:13:07.701Z,82.72
2019-03-09T01:15:37.362Z,83.29
2019-03-09T01:18:06.959Z,84.53
2019-03-09T01:20:37.083Z,84.53
2019-03-09T01:23:06.740Z,85.81
2019-03-09T01:25:36.352Z,84.50
2019-03-09T01:28:06.648Z,84.50
2019-03-09T01:30:36.330Z,85.68
2019-03-09T01:33:05.912Z,86.05
2019-03-09T01:35:36.011Z,86.80
2019-03-09T01:38:06.055Z,87.87
2019-03-09T01:40:35.847Z,88.01
2019-03-09T01:43:05.879Z,88.01
2019-03-09T01:45:35.955Z,87.92
2019-03-09T01:48:05.795Z,87.92
2019-03-09T01:50:35.306Z,87.88
2019-03-09T01:53:04.953Z,88.25
2019-03-09T01:55:34.952Z,87.96
2019-03-09T01:58:04.945Z,88.34
2019-03-09T02:00:35.302Z,88.35
2019-03-09T02:03:05.373Z,88.92
2019-03-09T02:05:35.858Z,89.20
2019-03-09T02:08:05.475Z,89.20
2019-03-09T02:10:35.416Z,90.57
2019-03-09T02:13:05.702Z,90.51
2019-03-09T02:15:35.689Z,90.51
2019-03-09T02:18:05.380Z,90.50
2019-03-09T02:20:34.968Z,90.51
2019-03-09T02:23:04.783Z,91.21
2019-03-09T02:25:34.655Z,91.16
2019-03-09T02:28:04.292Z,90.98
2019-03-09T02:30:34.122Z,90.82
2019-03-09T02:33:04.139Z,90.48
2019-03-09T02:35:34.301Z,89.59
2019-03-09T02:38:12.206Z,89.95
2019-03-09T02:40:41.983Z,90.18
2019-03-09T02:43:11.557Z,91.07
2019-03-09T02:45:41.179Z,91.07
2019-03-09T02:48:10.735Z,90.91
2019-03-09T02:50:55.751Z,90.38
2019-03-09T02:53:26.643Z,90.38
2019-03-09T02:55:56.547Z,91.24
2019-03-09T02:58:26.370Z,91.24
2019-03-09T03:01:10.227Z,91.52
2019-03-09T03:03:39.930Z,91.56
2019-03-09T03:06:09.670Z,92.12
2019-03-09T03:08:39.582Z,92.12
2019-03-09T03:11:10.922Z,91.60
2019-03-09T03:13:40.505Z,91.82
2019-03-09T03:16:10.200Z,91.82
2019-03-09T03:18:40.486Z,92.28
2019-03-09T03:21:10.196Z,92.28
2019-03-09T03:23:39.836Z,92.25
2019-03-09T03:26:09.462Z,92.84
2019-03-09T03:28:39.201Z,92.84
2019-03-09T03:31:09.040Z,92.40
2019-03-09T03:33:38.742Z,91.76
2019-03-09T03:36:08.457Z,92.21
2019-03-09T03:38:38.274Z,92.21
2019-03-09T03:41:08.754Z,92.56
2019-03-09T03:43:38.492Z,92.55
2019-03-09T03:46:08.055Z,92.55
2019-03-09T03:48:37.697Z,92.18
2019-03-09T03:51:07.292Z,92.30
2019-03-09T03:53:37.750Z,92.35
2019-03-09T03:56:07.367Z,92.62
2019-03-09T03:58:37.090Z,92.70
2019-03-09T04:01:06.721Z,92.70
2019-03-09T04:03:36.480Z,92.62
2019-03-09T04:06:06.108Z,92.93
2019-03-09T04:08:36.129Z,93.09
2019-03-09T04:11:06.370Z,93.09
2019-03-09T04:13:36.663Z,93.94
2019-03-09T04:16:06.561Z,93.94
2019-03-09T04:18:36.424Z,93.46
2019-03-09T04:21:06.027Z,93.62
2019-03-09T04:23:35.697Z,93.03
2019-03-09T04:26:05.600Z,93.11
2019-03-09T04:28:35.777Z,92.98
2019-03-09T04:31:06.415Z,92.48
2019-03-09T04:33:36.070Z,93.36
2019-03-09T04:36:05.532Z,92.88
2019-03-09T04:38:35.283Z,93.41
2019-03-09T04:41:04.945Z,93.41
2019-03-09T04:43:35.177Z,93.80
2019-03-09T04:46:04.859Z,93.54
2019-03-09T04:48:34.405Z,93.54
2019-03-09T04:51:04.117Z,93.54
2019-03-09T04:53:33.884Z,93.76
2019-03-09T04:56:03.605Z,93.59
2019-03-09T04:58:34.427Z,94.01
2019-03-09T05:01:04.100Z,93.54
2019-03-09T05:03:33.878Z,93.23
2019-03-09T05:06:03.519Z,93.23
2019-03-09T05:09:17.364Z,92.98
2019-03-09T05:11:47.188Z,93.42
2019-03-09T05:14:20.667Z,93.42
2019-03-09T05:16:50.315Z,93.40
2019-03-09T05:19:20.012Z,93.58
2019-03-09T05:21:49.827Z,93.58
2019-03-09T05:24:19.685Z,93.58
2019-03-09T05:26:49.497Z,92.17
2019-03-09T05:29:19.389Z,92.81
2019-03-09T05:31:49.230Z,92.81
2019-03-09T05:34:19.295Z,92.10
2019-03-09T05:36:48.813Z,92.03
2019-03-09T05:39:19.000Z,92.03
2019-03-09T05:41:48.771Z,92.29
2019-03-09T05:44:18.790Z,91.78
2019-03-09T05:46:48.353Z,91.78
2019-03-09T05:49:18.052Z,91.41
2019-03-09T05:52:41.938Z,92.62
2019-03-09T05:55:22.194Z,92.62
2019-03-09T05:57:51.658Z,91.19
2019-03-09T06:00:21.309Z,91.18
2019-03-09T06:02:51.401Z,90.85
2019-03-09T06:05:41.096Z,90.85
2019-03-09T06:08:11.173Z,91.39
2019-03-09T06:10:41.108Z,91.29
2019-03-09T06:13:10.978Z,91.68
2019-03-09T06:15:40.702Z,91.02
2019-03-09T06:18:10.521Z,90.90
2019-03-09T06:20:40.095Z,89.72
2019-03-09T06:23:09.597Z,90.67
2019-03-09T06:25:40.149Z,90.67
2019-03-09T06:28:09.653Z,90.80
2019-03-09T06:30:39.091Z,90.01
2019-03-09T06:33:37.277Z,90.52
2019-03-09T06:36:52.291Z,90.52
2019-03-09T06:39:42.926Z,91.35
2019-03-09T06:42:35.468Z,91.33
2019-03-09T06:45:05.690Z,90.44
2019-03-09T06:47:35.359Z,90.82
2019-03-09T06:50:05.297Z,90.38
2019-03-09T06:52:35.263Z,90.01
2019-03-09T06:55:05.798Z,91.21
2019-03-09T06:57:35.482Z,91.21
2019-03-09T07:00:42.463Z,90.89
2019-03-09T07:03:13.391Z,90.62
2019-03-09T07:05:43.126Z,90.62
2019-03-09T07:08:12.702Z,90.03
2019-03-09T07:10:42.479Z,90.20
2019-03-09T07:13:12.375Z,90.17
2019-03-09T07:15:45.248Z,90.17
2019-03-09T07:18:26.149Z,90.16
2019-03-09T07:20:55.952Z,89.78
2019-03-09T07:23:26.445Z,89.07
2019-03-09T07:25:56.301Z,89.07
2019-03-09T07:28:26.265Z,88.48
2019-03-09T07:30:56.536Z,88.29
2019-03-09T07:33:26.601Z,88.50
2019-03-09T07:35:57.024Z,89.29
2019-03-09T07:38:27.581Z,89.48
2019-03-09T07:40:57.571Z,88.10
2019-03-09T07:43:27.332Z,88.95
2019-03-09T07:45:57.538Z,88.22
2019-03-09T07:48:27.417Z,87.75
2019-03-09T07:50:57.346Z,88.44
2019-03-09T07:53:27.459Z,88.05
2019-03-09T07:55:57.728Z,89.30
2019-03-09T07:58:27.325Z,89.24
2019-03-09T08:00:58.151Z,89.24
2019-03-09T08:03:28.343Z,89.90
2019-03-09T08:05:58.183Z,89.90
2019-03-09T08:08:28.066Z,89.09
2019-03-09T08:10:58.521Z,89.23
2019-03-09T08:13:29.078Z,88.81
2019-03-09T08:15:59.122Z,87.86
2019-03-09T08:18:28.952Z,87.86
2019-03-09T08:20:58.490Z,87.36
2019-03-09T08:23:28.470Z,87.47
2019-03-09T08:25:58.589Z,86.66
2019-03-09T08:28:31.629Z,87.45
2019-03-09T08:31:01.794Z,87.45
2019-03-09T08:33:31.551Z,88.18
2019-03-09T08:36:03.254Z,87.46
2019-03-09T08:38:33.033Z,86.84
2019-03-09T08:41:03.151Z,87.25
2019-03-09T08:43:33.141Z,87.25
2019-03-09T08:46:03.181Z,87.67
2019-03-09T08:48:33.264Z,87.17
2019-03-09T08:51:02.829Z,88.12
2019-03-09T08:53:35.570Z,87.74
2019-03-09T08:56:05.462Z,86.72
2019-03-09T08:58:35.125Z,87.06
2019-03-09T09:01:05.815Z,87.73
2019-03-09T09:03:35.803Z,87.86
2019-03-09T09:06:06.137Z,87.86
2019-03-09T09:08:35.824Z,86.59
2019-03-09T09:11:05.585Z,87.03
2019-03-09T09:13:35.287Z,87.03
2019-03-09T09:16:05.199Z,87.17
2019-03-09T09:18:34.997Z,87.17
2019-03-09T09:21:04.778Z,86.35
2019-03-09T09:23:41.011Z,85.88
2019-03-09T09:26:11.141Z,85.88
2019-03-09T09:28:41.033Z,86.44
2019-03-09T09:31:10.886Z,86.44
2019-03-09T09:33:40.606Z,86.00
2019-03-09T09:36:10.174Z,86.00
2019-03-09T09:38:39.743Z,85.57
2019-03-09T09:41:09.666Z,84.68
2019-03-09T09:43:39.147Z,84.68
2019-03-09T09:46:09.045Z,85.53
2019-03-09T09:48:38.520Z,85.89
2019-03-09T09:51:08.350Z,85.45
2019-03-09T09:53:38.809Z,85.45
2019-03-09T09:56:09.132Z,84.03
2019-03-09T09:58:38.855Z,85.49
2019-03-09T10:01:09.355Z,85.49
2019-03-09T10:03:39.063Z,83.73
2019-03-09T10:06:08.611Z,82.89
2019-03-09T10:08:38.076Z,83.72
2019-03-09T10:11:08.006Z,83.72
2019-03-09T10:13:38.394Z,83.01
2019-03-09T10:16:11.333Z,82.70
2019-03-09T10:18:41.094Z,82.70
2019-03-09T10:21:10.572Z,81.35
2019-03-09T10:23:42.238Z,80.95
2019-03-09T10:26:11.759Z,82.35
2019-03-09T10:28:41.474Z,80.60
2019-03-09T10:31:11.984Z,81.47
2019-03-09T10:33:41.507Z,81.47
2019-03-09T10:36:11.086Z,80.92
2019-03-09T10:38:41.477Z,80.96
2019-03-09T10:41:11.123Z,81.16
2019-03-09T10:43:41.456Z,80.09
2019-03-09T10:46:11.052Z,80.44
2019-03-09T10:48:41.089Z,80.10
2019-03-09T10:51:10.909Z,80.10
2019-03-09T10:53:40.895Z,80.38
2019-03-09T10:56:10.389Z,79.69
2019-03-09T10:58:40.086Z,79.52
2019-03-09T11:01:09.636Z,79.52
2019-03-09T11:03:39.428Z,79.55
2019-03-09T11:06:09.248Z,78.61
2019-03-09T11:08:42.154Z,78.03
2019-03-09T11:11:11.996Z,78.83
2019-03-09T11:13:51.852Z,78.83
2019-03-09T11:16:25.727Z,78.12
2019-03-09T11:18:58.104Z,77.34
2019-03-09T11:21:28.155Z,77.77
2019-03-09T11:23:58.137Z,77.77
2019-03-09T11:26:27.907Z,77.61
2019-03-09T11:28:58.584Z,77.13
2019-03-09T11:31:28.270Z,77.12
2019-03-09T11:33:58.015Z,77.12
2019-03-09T11:36:27.550Z,75.17
2019-03-09T11:38:58.257Z,74.52
2019-03-09T11:41:27.910Z,75.24
2019-03-09T11:43:58.155Z,75.24
2019-03-09T11:46:28.028Z,75.41
2019-03-09T11:48:57.607Z,75.15
2019-03-09T11:51:27.306Z,74.50
2019-03-09T11:53:58.168Z,74.50
2019-03-09T11:56:27.641Z,73.58
2019-03-09T11:58:57.376Z,73.58
2019-03-09T12:01:26.976Z,73.57
2019-03-09T12:03:56.740Z,73.54
2019-03-09T12:06:27.275Z,72.73
2019-03-09T12:09:00.094Z,72.73
2019-03-09T12:11:36.231Z,73.55
2019-03-09T12:14:05.899Z,73.55
2019-03-09T12:16:35.398Z,70.95
2019-03-09T12:19:05.762Z,70.41
2019-03-09T12:21:35.395Z,70.41
2019-03-09T12:24:15.844Z,69.81
2019-03-09T12:26:38.461Z,69.82
2019-03-09T12:29:10.970Z,68.15
2019-03-09T12:31:40.771Z,68.46
2019-03-09T12:34:10.645Z,67.08
2019-03-09T12:36:40.436Z,67.08
2019-03-09T12:39:10.241Z,67.14
2019-03-09T12:41:40.208Z,66.09
2019-03-09T12:44:10.069Z,66.57
2019-03-09T12:46:41.853Z,66.57
2019-03-09T12:49:12.315Z,67.29
2019-03-09T12:51:41.914Z,65.84
2019-03-09T12:54:11.623Z,66.36
2019-03-09T12:56:43.146Z,66.37
2019-03-09T12:59:13.737Z,66.21
2019-03-09T13:01:43.360Z,64.99
2019-03-09T13:04:13.761Z,64.70
2019-03-09T13:06:45.924Z,66.10
2019-03-09T13:09:19.600Z,66.10
2019-03-09T13:11:52.759Z,65.77
2019-03-09T13:14:22.467Z,67.29
2019-03-09T13:16:52.422Z,66.42
2019-03-09T13:19:22.542Z,66.42
2019-03-09T13:21:52.285Z,68.22
2019-03-09T13:24:21.973Z,67.30
2019-03-09T13:26:51.649Z,67.91
2019-03-09T13:29:21.208Z,67.57
2019-03-09T13:31:52.372Z,67.57
2019-03-09T13:34:22.178Z,66.16
2019-03-09T13:36:51.725Z,65.20
2019-03-09T13:39:21.634Z,64.89
2019-03-09T13:41:51.312Z,64.89
2019-03-09T13:44:21.223Z,65.37
2019-03-09T13:46:54.716Z,65.92
2019-03-09T13:49:24.276Z,64.67
2019-03-09T13:51:53.817Z,64.67
2019-03-09T13:54:24.028Z,63.81
2019-03-09T13:56:53.617Z,63.50
2019-03-09T13:59:23.113Z,62.95
2019-03-09T14:01:53.079Z,64.11
2019-03-09T14:04:24.450Z,64.11
2019-03-09T14:06:54.042Z,65.99
2019-03-09T14:09:24.510Z,65.51
2019-03-09T14:11:54.048Z,67.78
2019-03-09T14:14:23.718Z,67.78
2019-03-09T14:16:53.478Z,68.44
2019-03-09T14:19:23.109Z,71.49
2019-03-09T14:21:53.027Z,71.49
2019-03-09T14:24:26.400Z,74.37
2019-03-09T14:26:56.228Z,76.14
2019-03-09T14:29:26.383Z,77.16
2019-03-09T14:31:56.323Z,81.74
2019-03-09T14:34:26.098Z,81.74
2019-03-09T14:36:56.056Z,82.16
2019-03-09T14:39:26.375Z,83.86
2019-03-09T14:41:56.234Z,86.52
2019-03-09T14:44:26.170Z,86.52
2019-03-09T14:46:56.424Z,85.69
2019-03-09T14:49:26.664Z,85.93
2019-03-09T14:51:56.400Z,85.28
2019-03-09T14:54:26.149Z,86.47
2019-03-09T14:56:57.555Z,85.57
2019-03-09T14:59:27.019Z,84.12
2019-03-09T15:01:56.624Z,84.26
2019-03-09T15:04:27.028Z,84.26
2019-03-09T15:06:56.467Z,84.45
2019-03-09T15:09:26.294Z,83.47
2019-03-09T15:11:55.800Z,83.47
2019-03-09T15:14:25.341Z,82.87
2019-03-09T15:16:55.186Z,83.17
2019-03-09T15:19:25.021Z,82.42
2019-03-09T15:21:54.661Z,81.29
2019-03-09T15:24:24.043Z,79.69
2019-03-09T15:26:53.740Z,79.69
2019-03-09T15:29:23.357Z,80.38
2019-03-09T15:31:52.878Z,81.26
2019-03-09T15:34:22.321Z,80.47
2019-03-09T15:36:52.244Z,80.22
2019-03-09T15:39:21.903Z,81.20
2019-03-09T15:41:51.980Z,80.19
2019-03-09T15:44:23.199Z,79.68
2019-03-09T15:46:53.045Z,79.61
2019-03-09T15:49:25.640Z,77.41
2019-03-09T15:51:55.725Z,77.10
2019-03-09T15:54:25.757Z,77.10
2019-03-09T15:56:57.888Z,76.58
2019-03-09T15:59:27.735Z,75.62
2019-03-09T16:01:57.286Z,75.62
2019-03-09T16:04:28.142Z,77.43
2019-03-09T16:06:57.961Z,77.01
2019-03-09T16:09:27.851Z,76.79
2019-03-09T16:11:57.773Z,76.79
2019-03-09T16:14:27.240Z,81.83
2019-03-09T16:16:59.219Z,81.83
2019-03-09T16:19:29.054Z,86.83
2019-03-09T16:21:59.715Z,87.30
2019-03-09T16:24:29.274Z,88.57
2019-03-09T16:26:59.349Z,88.57
2019-03-09T16:29:29.045Z,87.76
2019-03-09T16:31:59.130Z,88.86
2019-03-09T16:34:28.716Z,88.14
2019-03-09T16:36:58.380Z,88.14
2019-03-09T16:39:28.214Z,87.55
2019-03-09T16:41:57.841Z,87.57
2019-03-09T16:44:27.706Z,87.57
2019-03-09T16:46:58.175Z,89.03
2019-03-09T16:49:28.985Z,89.03
2019-03-09T16:51:59.095Z,87.99
2019-03-09T16:54:29.122Z,89.03
2019-03-09T16:57:02.778Z,89.03
2019-03-09T16:59:32.703Z,89.34
2019-03-09T17:02:05.203Z,88.13
2019-03-09T17:04:35.474Z,88.34
2019-03-09T17:07:13.756Z,88.34
2019-03-09T17:09:46.682Z,85.18
2019-03-09T17:12:16.892Z,84.59
2019-03-09T17:14:47.025Z,84.59
2019-03-09T17:17:22.490Z,86.66
2019-03-09T17:19:52.686Z,86.66
2019-03-09T17:22:32.442Z,85.43
2019-03-09T17:24:53.639Z,85.89
2019-03-09T17:27:25.154Z,86.18
2019-03-09T17:29:55.097Z,85.05
2019-03-09T17:32:26.545Z,85.49
2019-03-09T17:34:57.129Z,85.49
2019-03-09T17:37:26.480Z,85.43
2019-03-09T17:39:56.543Z,84.68
2019-03-09T17:42:26.274Z,84.01
2019-03-09T17:44:56.190Z,83.67
2019-03-09T17:47:27.687Z,84.91
2019-03-09T17:49:57.800Z,85.50
2019-03-09T17:52:27.638Z,85.50
2019-03-09T17:54:57.274Z,85.16
2019-03-09T17:57:27.614Z,85.16
2019-03-09T17:59:57.927Z,83.51
2019-03-09T18:02:27.537Z,83.62
2019-03-09T18:04:59.097Z,82.32
2019-03-09T18:07:31.211Z,81.49
2019-03-09T18:10:00.812Z,81.17
2019-03-09T18:12:30.435Z,81.17
2019-03-09T18:14:59.910Z,82.13
2019-03-09T18:17:29.882Z,82.91
2019-03-09T18:19:59.711Z,81.62
2019-03-09T18:22:29.310Z,81.62
2019-03-09T18:24:59.180Z,82.48
2019-03-09T18:27:29.016Z,82.48
2019-03-09T18:29:58.554Z,83.22
2019-03-09T18:32:28.095Z,82.05
2019-03-09T18:34:57.978Z,82.82
2019-03-09T18:37:28.134Z,82.46
2019-03-09T18:39:58.291Z,82.69
2019-03-09T18:42:32.354Z,81.97
2019-03-09T18:45:02.350Z,81.94
2019-03-09T18:47:31.755Z,82.38
2019-03-09T18:50:02.299Z,82.12
2019-03-09T18:52:35.862Z,82.12
2019-03-09T18:55:06.354Z,82.69
2019-03-09T18:57:36.266Z,82.74
2019-03-09T19:00:14.006Z,82.88
2019-03-09T19:02:43.904Z,81.69
2019-03-09T19:05:13.399Z,81.69
2019-03-09T19:07:43.236Z,82.91
2019-03-09T19:10:15.098Z,82.67
2019-03-09T19:12:44.691Z,81.59
2019-03-09T19:15:14.286Z,82.48
2019-03-09T19:17:45.762Z,82.33
2019-03-09T19:20:15.474Z,82.31
2019-03-09T19:22:44.992Z,82.22
2019-03-09T19:25:15.960Z,82.00
2019-03-09T19:27:45.599Z,82.23
2019-03-09T19:30:16.099Z,80.75
2019-03-09T19:32:45.923Z,80.75
2019-03-09T19:35:17.085Z,82.01
2019-03-09T19:37:46.844Z,82.45
2019-03-09T19:40:16.825Z,82.45
2019-03-09T19:42:47.144Z,82.86
2019-03-09T19:45:16.643Z,82.86
2019-03-09T19:47:48.451Z,81.05
2019-03-09T19:50:21.174Z,81.83
2019-03-09T19:52:51.536Z,81.83
2019-03-09T19:55:23.617Z,82.47
2019-03-09T19:57:56.116Z,82.20
2019-03-09T20:00:26.320Z,82.20
2019-03-09T20:02:55.783Z,82.79
2019-03-09T20:05:25.319Z,82.64
2019-03-09T20:07:55.772Z,82.27
2019-03-09T20:10:26.009Z,82.27
2019-03-09T20:12:55.645Z,82.45
2019-03-09T20:15:25.464Z,82.17
2019-03-09T20:17:55.167Z,83.22
2019-03-09T20:20:24.701Z,83.25
2019-03-09T20:22:54.274Z,83.25
2019-03-09T20:25:23.751Z,83.23
2019-03-09T20:27:53.168Z,82.50
2019-03-09T20:30:25.699Z,83.25
2019-03-09T20:32:55.592Z,83.35
2019-03-09T20:35:25.066Z,81.69
2019-03-09T20:37:56.471Z,82.22
2019-03-09T20:40:29.268Z,81.31
2019-03-09T20:42:59.723Z,81.97
2019-03-09T20:45:29.269Z,82.21
2019-03-09T20:48:01.751Z,81.38
2019-03-09T20:50:32.144Z,81.38
2019-03-09T20:53:01.732Z,81.07
2019-03-09T20:55:33.794Z,80.49
2019-03-09T20:58:04.011Z,80.49
2019-03-09T21:00:33.851Z,80.26
2019-03-09T21:03:03.495Z,80.26
2019-03-09T21:05:33.263Z,79.82
2019-03-09T21:08:02.830Z,80.05
2019-03-09T21:10:32.585Z,80.05
2019-03-09T21:13:07.183Z,80.14
2019-03-09T21:15:37.093Z,80.88
2019-03-09T21:18:06.774Z,80.88
2019-03-09T21:20:36.596Z,79.93
2019-03-09T21:23:06.217Z,80.00
2019-03-09T21:25:35.891Z,80.00
2019-03-09T21:28:10.689Z,78.93
2019-03-09T21:30:43.160Z,78.67
2019-03-09T21:33:15.744Z,78.67
2019-03-09T21:35:45.294Z,77.92
2019-03-09T21:38:15.212Z,77.33
2019-03-09T21:40:45.003Z,77.97
2019-03-09T21:43:14.754Z,77.63
2019-03-09T21:45:45.369Z,77.63
2019-03-09T21:48:15.596Z,76.43
2019-03-09T21:50:46.323Z,76.43
2019-03-09T21:53:15.975Z,76.86
2019-03-09T21:55:45.759Z,76.86
2019-03-09T21:58:15.607Z,75.06
2019-03-09T22:00:45.605Z,75.06
2019-03-09T22:03:18.446Z,75.85
2019-03-09T22:05:48.387Z,74.96
2019-03-09T22:08:19.485Z,75.71
2019-03-09T22:10:49.597Z,74.53
2019-03-09T22:13:19.565Z,74.02
2019-03-09T22:15:49.909Z,74.44
2019-03-09T22:18:19.613Z,74.44
2019-03-09T22:20:49.237Z,75.99
2019-03-09T22:23:18.937Z,74.86
2019-03-09T22:25:49.134Z,74.86
2019-03-09T22:28:19.095Z,74.47
2019-03-09T22:30:49.697Z,74.47
2019-03-09T22:33:19.541Z,75.29
2019-03-09T22:35:49.574Z,75.40
2019-03-09T22:38:19.871Z,76.11
2019-03-09T22:40:49.611Z,74.85
2019-03-09T22:43:19.310Z,76.02
2019-03-09T22:45:49.923Z,76.02
2019-03-09T22:48:19.958Z,76.02
2019-03-09T22:50:49.992Z,76.43
2019-03-09T22:53:19.481Z,75.08
2019-03-09T22:55:49.253Z,75.08
2019-03-09T22:58:18.721Z,75.90
2019-03-09T23:00:49.583Z,75.90
2019-03-09T23:03:19.160Z,75.48
2019-03-09T23:05:49.290Z,76.09
2019-03-09T23:08:19.156Z,76.07
2019-03-09T23:10:48.985Z,76.07
2019-03-09T23:13:18.807Z,75.94
2019-03-09T23:15:48.431Z,75.94
2019-03-09T23:18:18.052Z,76.44
2019-03-09T23:20:47.651Z,76.44
2019-03-09T23:23:17.295Z,78.79
2019-03-09T23:25:46.880Z,77.12
2019-03-09T23:28:17.193Z,77.12
2019-03-09T23:30:47.193Z,77.62
2019-03-09T23:33:17.109Z,79.48
2019-03-09T23:35:46.958Z,79.48
2019-03-09T23:38:16.777Z,80.12
2019-03-09T23:40:47.146Z,79.93
2019-03-09T23:43:17.348Z,82.16
2019-03-09T23:45:47.089Z,82.16
2019-03-09T23:48:16.712Z,82.65
2019-03-09T23:50:46.467Z,82.77
2019-03-09T23:53:16.097Z,83.79
2019-03-09T23:55:46.430Z,83.79
2019-03-09T23:58:16.022Z,83.93
